sensor_id;sensor_type;location;lat;lon;timestamp;pressure;altitude;pressure_sealevel;temperature;humidity
62051;BME280;48008;51.204;6.766;2022-12-07T00:01:30;101254.53;;;4.21;100.00
62051;BME280;48008;51.204;6.766;2022-12-07T00:03:59;101254.31;;;4.24;100.00
62051;BME280;48008;51.204;6.766;2022-12-07T00:06:32;101256.81;;;4.26;100.00
62051;BME280;48008;51.204;6.766;2022-12-07T00:08:59;101255.81;;;4.28;100.00
62051;BME280;48008;51.204;6.766;2022-12-07T00:11:26;101254.97;;;4.28;100.00
62051;BME280;48008;51.204;6.766;2022-12-07T00:13:55;101254.53;;;4.21;100.00
62051;BME280;48008;51.204;6.766;2022-12-07T00:16:25;101249.56;;;4.16;100.00
62051;BME280;48008;51.204;6.766;2022-12-07T00:18:52;101247.81;;;4.30;100.00
62051;BME280;48008;51.204;6.766;2022-12-07T00:21:23;101242.75;;;4.27;100.00
62051;BME280;48008;51.204;6.766;2022-12-07T00:23:51;101250.75;;;4.25;100.00
62051;BME280;48008;51.204;6.766;2022-12-07T00:26:20;101253.47;;;4.23;100.00
62051;BME280;48008;51.204;6.766;2022-12-07T00:28:49;101254.63;;;4.19;100.00
62051;BME280;48008;51.204;6.766;2022-12-07T00:31:18;101246.09;;;4.16;100.00
62051;BME280;48008;51.204;6.766;2022-12-07T00:33:45;101250.41;;;4.17;100.00
62051;BME280;48008;51.204;6.766;2022-12-07T00:36:15;101247.09;;;4.28;100.00
62051;BME280;48008;51.204;6.766;2022-12-07T00:38:43;101251.06;;;4.20;100.00
62051;BME280;48008;51.204;6.766;2022-12-07T00:41:12;101245.28;;;4.28;100.00
62051;BME280;48008;51.204;6.766;2022-12-07T00:43:40;101245.91;;;4.19;100.00
62051;BME280;48008;51.204;6.766;2022-12-07T00:46:07;101241.69;;;4.16;100.00
62051;BME280;48008;51.204;6.766;2022-12-07T00:48:34;101242.63;;;4.15;100.00
62051;BME280;48008;51.204;6.766;2022-12-07T00:51:01;101245.75;;;4.08;100.00
62051;BME280;48008;51.204;6.766;2022-12-07T00:53:28;101234.56;;;4.18;100.00
62051;BME280;48008;51.204;6.766;2022-12-07T00:55:55;101236.00;;;4.10;100.00
62051;BME280;48008;51.204;6.766;2022-12-07T00:58:23;101229.41;;;4.17;100.00
62051;BME280;48008;51.204;6.766;2022-12-07T01:00:50;101234.78;;;4.28;100.00
62051;BME280;48008;51.204;6.766;2022-12-07T01:03:17;101230.03;;;4.20;100.00
62051;BME280;48008;51.204;6.766;2022-12-07T01:05:52;101223.59;;;4.12;100.00
62051;BME280;48008;51.204;6.766;2022-12-07T01:08:20;101227.16;;;4.11;100.00
62051;BME280;48008;51.204;6.766;2022-12-07T01:10:47;101223.28;;;4.16;100.00
62051;BME280;48008;51.204;6.766;2022-12-07T01:13:14;101221.63;;;4.15;100.00
62051;BME280;48008;51.204;6.766;2022-12-07T01:15:43;101223.75;;;4.23;100.00
62051;BME280;48008;51.204;6.766;2022-12-07T01:18:11;101229.00;;;4.23;100.00
62051;BME280;48008;51.204;6.766;2022-12-07T01:20:37;101226.38;;;4.23;100.00
62051;BME280;48008;51.204;6.766;2022-12-07T01:23:04;101235.72;;;4.27;100.00
62051;BME280;48008;51.204;6.766;2022-12-07T01:25:31;101229.44;;;4.30;100.00
62051;BME280;48008;51.204;6.766;2022-12-07T01:27:58;101228.19;;;4.35;100.00
62051;BME280;48008;51.204;6.766;2022-12-07T01:30:24;101228.00;;;4.38;100.00
62051;BME280;48008;51.204;6.766;2022-12-07T01:32:51;101232.94;;;4.43;100.00
62051;BME280;48008;51.204;6.766;2022-12-07T01:35:17;101235.44;;;4.32;100.00
62051;BME280;48008;51.204;6.766;2022-12-07T01:37:45;101228.47;;;4.31;100.00
62051;BME280;48008;51.204;6.766;2022-12-07T01:40:12;101228.44;;;4.18;100.00
62051;BME280;48008;51.204;6.766;2022-12-07T01:42:38;101232.81;;;4.04;100.00
62051;BME280;48008;51.204;6.766;2022-12-07T01:45:40;101233.06;;;4.14;100.00
62051;BME280;48008;51.204;6.766;2022-12-07T01:48:09;101226.63;;;4.06;100.00
62051;BME280;48008;51.204;6.766;2022-12-07T01:50:38;101222.31;;;4.04;100.00
62051;BME280;48008;51.204;6.766;2022-12-07T01:53:09;101224.41;;;3.99;100.00
62051;BME280;48008;51.204;6.766;2022-12-07T01:55:38;101225.03;;;4.03;100.00
62051;BME280;48008;51.204;6.766;2022-12-07T01:58:06;101220.66;;;4.16;100.00
62051;BME280;48008;51.204;6.766;2022-12-07T02:00:33;101219.63;;;4.19;100.00
62051;BME280;48008;51.204;6.766;2022-12-07T02:03:06;101221.56;;;4.30;100.00
62051;BME280;48008;51.204;6.766;2022-12-07T02:05:37;101223.56;;;4.26;100.00
62051;BME280;48008;51.204;6.766;2022-12-07T02:08:05;101218.94;;;4.30;100.00
62051;BME280;48008;51.204;6.766;2022-12-07T02:10:32;101214.50;;;4.30;100.00
62051;BME280;48008;51.204;6.766;2022-12-07T02:13:18;101217.75;;;4.21;100.00
62051;BME280;48008;51.204;6.766;2022-12-07T02:19:39;101219.56;;;4.33;100.00
62051;BME280;48008;51.204;6.766;2022-12-07T02:22:01;101212.53;;;4.34;100.00
62051;BME280;48008;51.204;6.766;2022-12-07T02:27:43;101214.56;;;4.16;100.00
62051;BME280;48008;51.204;6.766;2022-12-07T02:30:21;101206.25;;;4.09;100.00
62051;BME280;48008;51.204;6.766;2022-12-07T02:32:56;101213.09;;;4.12;100.00
62051;BME280;48008;51.204;6.766;2022-12-07T02:35:32;101216.19;;;4.18;100.00
62051;BME280;48008;51.204;6.766;2022-12-07T02:38:20;101227.72;;;4.16;100.00
62051;BME280;48008;51.204;6.766;2022-12-07T02:40:57;101218.44;;;4.10;100.00
62051;BME280;48008;51.204;6.766;2022-12-07T02:43:28;101217.72;;;4.08;100.00
62051;BME280;48008;51.204;6.766;2022-12-07T02:46:02;101214.63;;;4.01;100.00
62051;BME280;48008;51.204;6.766;2022-12-07T02:48:31;101207.50;;;4.03;100.00
62051;BME280;48008;51.204;6.766;2022-12-07T02:51:00;101213.50;;;4.06;100.00
62051;BME280;48008;51.204;6.766;2022-12-07T02:53:38;101215.69;;;3.99;100.00
62051;BME280;48008;51.204;6.766;2022-12-07T02:56:28;101211.38;;;3.98;100.00
62051;BME280;48008;51.204;6.766;2022-12-07T03:01:58;101213.34;;;4.21;100.00
62051;BME280;48008;51.204;6.766;2022-12-07T03:07:45;101213.97;;;4.25;100.00
62051;BME280;48008;51.204;6.766;2022-12-07T03:19:07;101213.19;;;4.10;100.00
62051;BME280;48008;51.204;6.766;2022-12-07T03:21:39;101214.53;;;4.03;100.00
62051;BME280;48008;51.204;6.766;2022-12-07T03:24:09;101213.19;;;4.10;100.00
62051;BME280;48008;51.204;6.766;2022-12-07T03:26:42;101204.91;;;4.16;100.00
62051;BME280;48008;51.204;6.766;2022-12-07T03:29:17;101210.94;;;4.18;100.00
62051;BME280;48008;51.204;6.766;2022-12-07T03:31:48;101204.81;;;4.18;100.00
62051;BME280;48008;51.204;6.766;2022-12-07T03:34:24;101205.81;;;4.30;100.00
62051;BME280;48008;51.204;6.766;2022-12-07T03:37:03;101207.56;;;4.29;100.00
62051;BME280;48008;51.204;6.766;2022-12-07T03:40:02;101213.34;;;4.34;100.00
62051;BME280;48008;51.204;6.766;2022-12-07T03:42:32;101211.16;;;4.28;100.00
62051;BME280;48008;51.204;6.766;2022-12-07T03:45:01;101210.72;;;4.21;100.00
62051;BME280;48008;51.204;6.766;2022-12-07T03:47:33;101211.84;;;4.17;100.00
62051;BME280;48008;51.204;6.766;2022-12-07T03:50:09;101209.78;;;4.22;100.00
62051;BME280;48008;51.204;6.766;2022-12-07T03:52:42;101211.53;;;4.22;100.00
62051;BME280;48008;51.204;6.766;2022-12-07T03:55:30;101207.03;;;4.11;100.00
62051;BME280;48008;51.204;6.766;2022-12-07T03:58:01;101203.88;;;4.19;100.00
62051;BME280;48008;51.204;6.766;2022-12-07T04:00:29;101200.06;;;4.10;100.00
62051;BME280;48008;51.204;6.766;2022-12-07T04:02:55;101203.91;;;3.92;100.00
62051;BME280;48008;51.204;6.766;2022-12-07T04:05:23;101207.50;;;4.03;100.00
62051;BME280;48008;51.204;6.766;2022-12-07T04:07:49;101206.75;;;4.01;100.00
62051;BME280;48008;51.204;6.766;2022-12-07T04:10:16;101213.19;;;4.10;100.00
62051;BME280;48008;51.204;6.766;2022-12-07T04:12:43;101209.47;;;4.00;100.00
62051;BME280;48008;51.204;6.766;2022-12-07T04:15:09;101206.34;;;3.95;100.00
62051;BME280;48008;51.204;6.766;2022-12-07T04:17:36;101207.41;;;4.05;100.00
62051;BME280;48008;51.204;6.766;2022-12-07T04:20:04;101208.13;;;4.07;100.00
62051;BME280;48008;51.204;6.766;2022-12-07T04:22:31;101208.38;;;4.04;100.00
62051;BME280;48008;51.204;6.766;2022-12-07T04:24:58;101209.84;;;4.08;100.00
62051;BME280;48008;51.204;6.766;2022-12-07T04:27:25;101208.03;;;4.09;100.00
62051;BME280;48008;51.204;6.766;2022-12-07T04:29:53;101206.25;;;4.09;100.00
62051;BME280;48008;51.204;6.766;2022-12-07T04:32:20;101208.00;;;3.96;100.00
62051;BME280;48008;51.204;6.766;2022-12-07T04:34:46;101199.72;;;4.02;100.00
62051;BME280;48008;51.204;6.766;2022-12-07T04:37:15;101202.50;;;4.13;100.00
62051;BME280;48008;51.204;6.766;2022-12-07T04:39:45;101198.09;;;4.14;100.00
62051;BME280;48008;51.204;6.766;2022-12-07T04:42:12;101196.84;;;4.19;100.00
62051;BME280;48008;51.204;6.766;2022-12-07T04:44:39;101194.47;;;4.02;100.00
62051;BME280;48008;51.204;6.766;2022-12-07T04:47:06;101196.06;;;4.04;100.00
62051;BME280;48008;51.204;6.766;2022-12-07T04:49:33;101193.44;;;4.04;100.00
62051;BME280;48008;51.204;6.766;2022-12-07T04:51:59;101199.34;;;4.08;100.00
62051;BME280;48008;51.204;6.766;2022-12-07T04:54:26;101196.16;;;4.03;100.00
62051;BME280;48008;51.204;6.766;2022-12-07T04:56:53;101190.72;;;4.06;100.00
62051;BME280;48008;51.204;6.766;2022-12-07T04:59:19;101195.38;;;4.15;100.00
62051;BME280;48008;51.204;6.766;2022-12-07T05:01:46;101193.66;;;4.14;100.00
62051;BME280;48008;51.204;6.766;2022-12-07T05:04:13;101191.91;;;4.15;100.00
62051;BME280;48008;51.204;6.766;2022-12-07T05:06:40;101185.38;;;4.08;100.00
62051;BME280;48008;51.204;6.766;2022-12-07T05:09:07;101179.81;;;3.85;100.00
62051;BME280;48008;51.204;6.766;2022-12-07T05:11:33;101182.13;;;3.77;100.00
62051;BME280;48008;51.204;6.766;2022-12-07T05:14:15;101183.56;;;3.68;100.00
62051;BME280;48008;51.204;6.766;2022-12-07T05:16:43;101197.47;;;3.83;100.00
62051;BME280;48008;51.204;6.766;2022-12-07T05:19:10;101200.91;;;3.83;100.00
62051;BME280;48008;51.204;6.766;2022-12-07T05:21:38;101204.09;;;3.89;100.00
62051;BME280;48008;51.204;6.766;2022-12-07T05:24:06;101198.47;;;3.95;100.00
62051;BME280;48008;51.204;6.766;2022-12-07T05:26:34;101194.97;;;3.94;100.00
62051;BME280;48008;51.204;6.766;2022-12-07T05:29:01;101205.19;;;3.99;100.00
62051;BME280;48008;51.204;6.766;2022-12-07T05:31:27;101207.13;;;4.10;100.00
62051;BME280;48008;51.204;6.766;2022-12-07T05:33:54;101205.94;;;4.01;100.00
62051;BME280;48008;51.204;6.766;2022-12-07T05:36:21;101204.41;;;4.11;100.00
62051;BME280;48008;51.204;6.766;2022-12-07T05:38:49;101206.69;;;4.16;100.00
62051;BME280;48008;51.204;6.766;2022-12-07T05:41:18;101194.75;;;4.25;100.00
62051;BME280;48008;51.204;6.766;2022-12-07T05:44:05;101190.75;;;4.19;100.00
62051;BME280;48008;51.204;6.766;2022-12-07T05:46:32;101187.38;;;4.17;100.00
62051;BME280;48008;51.204;6.766;2022-12-07T05:49:00;101183.41;;;4.24;100.00
62051;BME280;48008;51.204;6.766;2022-12-07T05:51:27;101190.31;;;4.12;100.00
62051;BME280;48008;51.204;6.766;2022-12-07T05:53:54;101191.38;;;4.10;100.00
62051;BME280;48008;51.204;6.766;2022-12-07T05:56:21;101184.38;;;3.96;100.00
62051;BME280;48008;51.204;6.766;2022-12-07T05:58:48;101188.19;;;4.04;100.00
62051;BME280;48008;51.204;6.766;2022-12-07T06:01:35;101185.22;;;3.96;100.00
62051;BME280;48008;51.204;6.766;2022-12-07T06:04:01;101184.38;;;3.96;100.00
62051;BME280;48008;51.204;6.766;2022-12-07T06:06:28;101187.09;;;3.94;100.00
62051;BME280;48008;51.204;6.766;2022-12-07T06:08:55;101193.34;;;4.06;100.00
62051;BME280;48008;51.204;6.766;2022-12-07T06:11:21;101199.78;;;4.15;100.00
62051;BME280;48008;51.204;6.766;2022-12-07T06:14:08;101196.09;;;4.17;100.00
62051;BME280;48008;51.204;6.766;2022-12-07T06:16:35;101190.03;;;4.17;100.00
62051;BME280;48008;51.204;6.766;2022-12-07T06:19:01;101194.28;;;4.05;100.00
62051;BME280;48008;51.204;6.766;2022-12-07T06:21:28;101196.69;;;3.95;100.00
62051;BME280;48008;51.204;6.766;2022-12-07T06:23:55;101195.97;;;4.06;100.00
62051;BME280;48008;51.204;6.766;2022-12-07T06:26:22;101194.78;;;3.97;100.00
62051;BME280;48008;51.204;6.766;2022-12-07T06:28:49;101204.66;;;3.94;100.00
62051;BME280;48008;51.204;6.766;2022-12-07T06:31:16;101198.75;;;3.90;100.00
62051;BME280;48008;51.204;6.766;2022-12-07T06:33:43;101200.44;;;3.91;100.00
62051;BME280;48008;51.204;6.766;2022-12-07T06:36:10;101208.16;;;3.80;100.00
62051;BME280;48008;51.204;6.766;2022-12-07T06:38:37;101204.28;;;3.85;100.00
62051;BME280;48008;51.204;6.766;2022-12-07T06:41:04;101208.38;;;3.77;100.00
62051;BME280;48008;51.204;6.766;2022-12-07T06:43:32;101203.44;;;3.85;100.00
62051;BME280;48008;51.204;6.766;2022-12-07T06:45:59;101214.41;;;3.92;100.00
62051;BME280;48008;51.204;6.766;2022-12-07T06:48:26;101208.31;;;3.91;100.00
62051;BME280;48008;51.204;6.766;2022-12-07T06:50:52;101211.00;;;4.04;100.00
62051;BME280;48008;51.204;6.766;2022-12-07T06:53:20;101208.59;;;3.87;100.00
62051;BME280;48008;51.204;6.766;2022-12-07T06:55:47;101213.22;;;3.83;100.00
62051;BME280;48008;51.204;6.766;2022-12-07T06:58:14;101205.69;;;3.91;100.00
62051;BME280;48008;51.204;6.766;2022-12-07T07:00:40;101202.63;;;3.84;100.00
62051;BME280;48008;51.204;6.766;2022-12-07T07:03:07;101200.88;;;3.71;100.00
62051;BME280;48008;51.204;6.766;2022-12-07T07:05:34;101207.97;;;3.83;100.00
62051;BME280;48008;51.204;6.766;2022-12-07T07:08:01;101204.28;;;3.85;100.00
62051;BME280;48008;51.204;6.766;2022-12-07T07:10:48;101205.75;;;3.77;100.00
62051;BME280;48008;51.204;6.766;2022-12-07T07:13:16;101207.09;;;3.97;100.00
62051;BME280;48008;51.204;6.766;2022-12-07T07:15:43;101206.44;;;3.93;100.00
62051;BME280;48008;51.204;6.766;2022-12-07T07:18:09;101207.41;;;3.78;100.00
62051;BME280;48008;51.204;6.766;2022-12-07T07:20:37;101212.47;;;3.81;100.00
62051;BME280;48008;51.204;6.766;2022-12-07T07:23:04;101199.16;;;3.84;100.00
62051;BME280;48008;51.204;6.766;2022-12-07T07:25:31;101208.69;;;3.85;100.00
62051;BME280;48008;51.204;6.766;2022-12-07T07:27:58;101206.56;;;3.77;100.00
62051;BME280;48008;51.204;6.766;2022-12-07T07:30:26;101216.94;;;3.66;100.00
62051;BME280;48008;51.204;6.766;2022-12-07T07:33:01;101207.81;;;3.72;100.00
62051;BME280;48008;51.204;6.766;2022-12-07T07:35:29;101210.31;;;3.88;100.00
62051;BME280;48008;51.204;6.766;2022-12-07T07:37:56;101216.75;;;3.82;100.00
62051;BME280;48008;51.204;6.766;2022-12-07T07:40:24;101213.72;;;3.75;100.00
62051;BME280;48008;51.204;6.766;2022-12-07T07:42:52;101221.28;;;3.80;100.00
62051;BME280;48008;51.204;6.766;2022-12-07T07:45:21;101219.50;;;3.80;100.00
62051;BME280;48008;51.204;6.766;2022-12-07T07:47:49;101218.66;;;3.80;100.00
62051;BME280;48008;51.204;6.766;2022-12-07T07:50:17;101211.72;;;3.79;100.00
62051;BME280;48008;51.204;6.766;2022-12-07T07:52:44;101220.75;;;3.75;100.00
62051;BME280;48008;51.204;6.766;2022-12-07T07:55:11;101214.41;;;3.64;100.00
62051;BME280;48008;51.204;6.766;2022-12-07T07:57:39;101221.22;;;3.67;100.00
62051;BME280;48008;51.204;6.766;2022-12-07T08:00:09;101219.34;;;3.69;100.00
62051;BME280;48008;51.204;6.766;2022-12-07T08:02:40;101216.75;;;3.82;100.00
62051;BME280;48008;51.204;6.766;2022-12-07T08:05:07;101223.44;;;3.88;100.00
62051;BME280;48008;51.204;6.766;2022-12-07T08:07:34;101223.16;;;3.78;100.00
62051;BME280;48008;51.204;6.766;2022-12-07T08:10:00;101222.09;;;3.68;100.00
62051;BME280;48008;51.204;6.766;2022-12-07T08:12:27;101231.53;;;3.70;100.00
62051;BME280;48008;51.204;6.766;2022-12-07T08:14:54;101232.63;;;3.80;100.00
62051;BME280;48008;51.204;6.766;2022-12-07T08:17:20;101229.38;;;3.77;100.00
62051;BME280;48008;51.204;6.766;2022-12-07T08:19:47;101239.41;;;3.97;100.00
62051;BME280;48008;51.204;6.766;2022-12-07T08:22:14;101237.94;;;3.93;100.00
62051;BME280;48008;51.204;6.766;2022-12-07T08:24:41;101240.69;;;4.04;100.00
62051;BME280;48008;51.204;6.766;2022-12-07T08:27:07;101239.00;;;4.03;100.00
62051;BME280;48008;51.204;6.766;2022-12-07T08:29:34;101246.59;;;4.08;100.00
62051;BME280;48008;51.204;6.766;2022-12-07T08:32:01;101247.75;;;4.04;100.00
62051;BME280;48008;51.204;6.766;2022-12-07T08:34:31;101244.66;;;3.97;100.00
62051;BME280;48008;51.204;6.766;2022-12-07T08:36:57;101250.00;;;3.96;100.00
62051;BME280;48008;51.204;6.766;2022-12-07T08:39:24;101243.75;;;3.98;100.00
62051;BME280;48008;51.204;6.766;2022-12-07T08:41:58;101238.22;;;3.89;100.00
62051;BME280;48008;51.204;6.766;2022-12-07T08:44:25;101242.31;;;3.93;100.00
62051;BME280;48008;51.204;6.766;2022-12-07T08:46:56;101238.16;;;4.03;100.00
62051;BME280;48008;51.204;6.766;2022-12-07T08:49:35;101237.53;;;3.99;100.00
62051;BME280;48008;51.204;6.766;2022-12-07T08:52:04;101235.41;;;3.92;100.00
62051;BME280;48008;51.204;6.766;2022-12-07T08:54:34;101237.88;;;4.08;100.00
62051;BME280;48008;51.204;6.766;2022-12-07T08:57:02;101238.50;;;3.98;100.00
62051;BME280;48008;51.204;6.766;2022-12-07T08:59:30;101237.44;;;4.01;100.00
62051;BME280;48008;51.204;6.766;2022-12-07T09:01:56;101235.41;;;4.19;100.00
62051;BME280;48008;51.204;6.766;2022-12-07T09:04:23;101228.81;;;4.26;100.00
62051;BME280;48008;51.204;6.766;2022-12-07T09:06:50;101232.44;;;4.23;100.00
62051;BME280;48008;51.204;6.766;2022-12-07T09:09:17;101229.63;;;4.27;100.00
62051;BME280;48008;51.204;6.766;2022-12-07T09:11:44;101232.53;;;4.22;100.00
62051;BME280;48008;51.204;6.766;2022-12-07T09:14:12;101228.00;;;4.38;100.00
62051;BME280;48008;51.204;6.766;2022-12-07T09:16:39;101233.84;;;4.42;99.86
62051;BME280;48008;51.204;6.766;2022-12-07T09:19:07;101234.81;;;4.41;100.00
62051;BME280;48008;51.204;6.766;2022-12-07T09:21:34;101235.56;;;4.43;100.00
62051;BME280;48008;51.204;6.766;2022-12-07T09:24:00;101235.78;;;4.53;99.77
62051;BME280;48008;51.204;6.766;2022-12-07T09:26:27;101230.13;;;4.59;100.00
62051;BME280;48008;51.204;6.766;2022-12-07T09:28:54;101233.03;;;4.54;99.45
62051;BME280;48008;51.204;6.766;2022-12-07T09:31:20;101235.38;;;4.72;99.38
62051;BME280;48008;51.204;6.766;2022-12-07T09:33:54;101231.69;;;4.61;99.62
62051;BME280;48008;51.204;6.766;2022-12-07T09:36:21;101239.19;;;4.68;100.00
62051;BME280;48008;51.204;6.766;2022-12-07T09:38:48;101243.09;;;4.88;99.70
62051;BME280;48008;51.204;6.766;2022-12-07T09:41:14;101251.38;;;4.81;98.50
62051;BME280;48008;51.204;6.766;2022-12-07T09:43:42;101246.00;;;4.70;98.83
62051;BME280;48008;51.204;6.766;2022-12-07T09:46:13;101246.72;;;4.59;99.63
62051;BME280;48008;51.204;6.766;2022-12-07T09:48:42;101242.75;;;4.67;99.93
62051;BME280;48008;51.204;6.766;2022-12-07T09:51:15;101247.81;;;4.83;99.35
62051;BME280;48008;51.204;6.766;2022-12-07T09:53:47;101243.06;;;5.00;96.80
62051;BME280;48008;51.204;6.766;2022-12-07T09:56:16;101241.59;;;4.84;96.45
62051;BME280;48008;51.204;6.766;2022-12-07T09:58:44;101238.31;;;4.93;96.44
62051;BME280;48008;51.204;6.766;2022-12-07T10:01:16;101240.22;;;4.91;96.36
62051;BME280;48008;51.204;6.766;2022-12-07T10:03:49;101236.97;;;4.87;97.23
62051;BME280;48008;51.204;6.766;2022-12-07T10:06:16;101229.94;;;4.88;97.56
62051;BME280;48008;51.204;6.766;2022-12-07T10:08:43;101232.03;;;4.70;97.84
62051;BME280;48008;51.204;6.766;2022-12-07T10:11:10;101231.50;;;4.90;97.38
62051;BME280;48008;51.204;6.766;2022-12-07T10:13:40;101228.03;;;4.90;97.54
62051;BME280;48008;51.204;6.766;2022-12-07T10:16:31;101220.34;;;4.74;97.16
62051;BME280;48008;51.204;6.766;2022-12-07T10:19:32;101217.91;;;4.96;96.37
62051;BME280;48008;51.204;6.766;2022-12-07T10:22:16;101216.69;;;5.02;95.89
62051;BME280;48008;51.204;6.766;2022-12-07T10:24:46;101214.78;;;5.17;95.99
62051;BME280;48008;51.204;6.766;2022-12-07T10:27:20;101216.34;;;4.94;95.77
62051;BME280;48008;51.204;6.766;2022-12-07T10:29:50;101209.72;;;5.14;95.38
62051;BME280;48008;51.204;6.766;2022-12-07T10:35:23;101207.22;;;5.49;93.08
62051;BME280;48008;51.204;6.766;2022-12-07T10:37:51;101210.94;;;5.34;93.57
62051;BME280;48008;51.204;6.766;2022-12-07T10:40:30;101202.44;;;5.30;95.04
62051;BME280;48008;51.204;6.766;2022-12-07T10:43:04;101199.00;;;5.54;93.05
62051;BME280;48008;51.204;6.766;2022-12-07T10:45:32;101197.84;;;5.45;93.48
62051;BME280;48008;51.204;6.766;2022-12-07T10:48:24;101199.16;;;5.64;92.52
62051;BME280;48008;51.204;6.766;2022-12-07T10:51:20;101196.38;;;5.78;91.12
62051;BME280;48008;51.204;6.766;2022-12-07T10:54:16;101195.22;;;5.82;90.92
62051;BME280;48008;51.204;6.766;2022-12-07T10:59:57;101182.88;;;6.07;89.43
62051;BME280;48008;51.204;6.766;2022-12-07T11:02:41;101194.22;;;9.26;74.54
62051;BME280;48008;51.204;6.766;2022-12-07T11:05:38;101189.81;;;9.46;72.49
62051;BME280;48008;51.204;6.766;2022-12-07T11:08:38;101182.22;;;9.72;70.71
62051;BME280;48008;51.204;6.766;2022-12-07T11:11:29;101185.34;;;8.75;73.44
62051;BME280;48008;51.204;6.766;2022-12-07T11:17:10;101173.25;;;8.30;75.73
62051;BME280;48008;51.204;6.766;2022-12-07T11:19:55;101172.28;;;8.73;74.74
62051;BME280;48008;51.204;6.766;2022-12-07T11:28:14;101155.97;;;8.47;75.47
62051;BME280;48008;51.204;6.766;2022-12-07T11:31:00;101156.25;;;9.46;71.26
62051;BME280;48008;51.204;6.766;2022-12-07T11:33:41;101154.47;;;9.66;69.92
62051;BME280;48008;51.204;6.766;2022-12-07T11:36:33;101146.78;;;10.12;67.81
62051;BME280;48008;51.204;6.766;2022-12-07T11:39:23;101153.44;;;10.45;66.03
62051;BME280;48008;51.204;6.766;2022-12-07T11:42:01;101150.53;;;9.80;67.78
62051;BME280;48008;51.204;6.766;2022-12-07T11:44:42;101148.59;;;9.92;67.85
62051;BME280;48008;51.204;6.766;2022-12-07T11:47:48;101149.97;;;10.45;66.51
62051;BME280;48008;51.204;6.766;2022-12-07T11:50:43;101142.59;;;9.70;68.03
62051;BME280;48008;51.204;6.766;2022-12-07T11:53:35;101142.03;;;9.67;70.06
62051;BME280;48008;51.204;6.766;2022-12-07T11:56:14;101146.91;;;8.71;72.45
62051;BME280;48008;51.204;6.766;2022-12-07T11:58:48;101133.97;;;8.04;74.40
62051;BME280;48008;51.204;6.766;2022-12-07T12:04:32;101124.09;;;8.27;75.09
62051;BME280;48008;51.204;6.766;2022-12-07T12:07:02;101121.59;;;8.26;74.78
62051;BME280;48008;51.204;6.766;2022-12-07T12:10:03;101121.41;;;8.18;75.23
62051;BME280;48008;51.204;6.766;2022-12-07T12:16:39;101116.94;;;8.18;75.27
62051;BME280;48008;51.204;6.766;2022-12-07T12:22:05;101117.31;;;8.46;73.64
62051;BME280;48008;51.204;6.766;2022-12-07T12:24:33;101115.63;;;8.45;73.33
62051;BME280;48008;51.204;6.766;2022-12-07T12:27:06;101116.19;;;8.79;72.12
62051;BME280;48008;51.204;6.766;2022-12-07T12:29:37;101115.06;;;8.72;71.30
62051;BME280;48008;51.204;6.766;2022-12-07T12:32:13;101108.66;;;9.35;70.44
62051;BME280;48008;51.204;6.766;2022-12-07T12:35:01;101102.38;;;10.24;67.89
62051;BME280;48008;51.204;6.766;2022-12-07T12:37:39;101111.97;;;10.91;62.73
62051;BME280;48008;51.204;6.766;2022-12-07T12:42:53;101094.19;;;11.20;61.95
62051;BME280;48008;51.204;6.766;2022-12-07T12:45:25;101099.00;;;10.79;62.86
62051;BME280;48008;51.204;6.766;2022-12-07T12:50:37;101093.66;;;9.35;68.45
62051;BME280;48008;51.204;6.766;2022-12-07T12:53:23;101092.00;;;8.32;70.64
62051;BME280;48008;51.204;6.766;2022-12-07T12:58:32;101086.25;;;7.20;76.90
62051;BME280;48008;51.204;6.766;2022-12-07T13:04:38;101083.69;;;6.86;80.22
62051;BME280;48008;51.204;6.766;2022-12-07T13:07:10;101082.28;;;6.82;80.31
62051;BME280;48008;51.204;6.766;2022-12-07T13:09:42;101085.13;;;6.79;81.35
62051;BME280;48008;51.204;6.766;2022-12-07T13:12:13;101090.88;;;6.73;81.62
62051;BME280;48008;51.204;6.766;2022-12-07T13:14:51;101085.25;;;6.89;81.60
62051;BME280;48008;51.204;6.766;2022-12-07T13:20:09;101078.41;;;6.98;79.64
62051;BME280;48008;51.204;6.766;2022-12-07T13:22:43;101078.44;;;6.75;82.77
62051;BME280;48008;51.204;6.766;2022-12-07T13:25:19;101076.41;;;6.79;81.96
62051;BME280;48008;51.204;6.766;2022-12-07T13:28:09;101066.03;;;6.98;80.96
62051;BME280;48008;51.204;6.766;2022-12-07T13:30:47;101063.78;;;6.94;80.75
62051;BME280;48008;51.204;6.766;2022-12-07T13:33:18;101061.53;;;6.78;80.91
62051;BME280;48008;51.204;6.766;2022-12-07T13:35:45;101060.66;;;6.88;81.45
62051;BME280;48008;51.204;6.766;2022-12-07T13:38:33;101067.41;;;6.59;81.44
62051;BME280;48008;51.204;6.766;2022-12-07T13:41:18;101067.66;;;6.56;82.41
62051;BME280;48008;51.204;6.766;2022-12-07T13:43:49;101060.34;;;6.59;83.45
62051;BME280;48008;51.204;6.766;2022-12-07T13:46:19;101059.16;;;6.29;83.14
62051;BME280;48008;51.204;6.766;2022-12-07T13:48:49;101051.84;;;6.44;83.90
62051;BME280;48008;51.204;6.766;2022-12-07T13:51:26;101049.66;;;6.38;83.09
62051;BME280;48008;51.204;6.766;2022-12-07T13:54:01;101053.63;;;6.32;81.32
62051;BME280;48008;51.204;6.766;2022-12-07T13:56:36;101055.53;;;6.30;81.34
62051;BME280;48008;51.204;6.766;2022-12-07T13:59:03;101043.31;;;6.52;82.58
62051;BME280;48008;51.204;6.766;2022-12-07T14:01:31;101049.69;;;6.49;81.86
62051;BME280;48008;51.204;6.766;2022-12-07T14:04:27;101041.53;;;6.52;80.21
62051;BME280;48008;51.204;6.766;2022-12-07T14:06:55;101034.34;;;6.66;81.09
62051;BME280;48008;51.204;6.766;2022-12-07T14:09:25;101039.72;;;6.53;81.52
62051;BME280;48008;51.204;6.766;2022-12-07T14:11:53;101030.75;;;6.56;81.05
62051;BME280;48008;51.204;6.766;2022-12-07T14:14:30;101030.03;;;6.65;80.91
62051;BME280;48008;51.204;6.766;2022-12-07T14:17:12;101025.00;;;6.50;81.33